Time;durP1;ratioP1;P1;durP2;ratioP2;P2;SDS_P1;SDS_P2;PMS_P1;PMS_P2;Temp;Humidity;BMP_temperature;BMP_pressure;BME280_temperature;BME280_humidity;BME280_pressure;Samples;Min_cycle;Max_cycle;Signal;HPM_P1;HPM_P2
2021/12/27 00:01:47;;;;;;;18.83;9.75;;;1.00;99.90;;;;;;5030171;28;20194;-74
2021/12/27 00:04:12;;;;;;;19.15;9.43;;;0.90;99.90;;;;;;5030252;28;20190;-74
2021/12/27 00:06:38;;;;;;;17.60;10.25;;;0.80;99.90;;;;;;5030218;28;20162;-74
2021/12/27 00:09:04;;;;;;;20.38;10.55;;;0.90;99.90;;;;;;5030010;28;20170;-73
2021/12/27 00:11:30;;;;;;;23.13;11.38;;;0.90;99.90;;;;;;5012331;28;20217;-74
2021/12/27 00:13:56;;;;;;;21.10;11.48;;;0.90;99.90;;;;;;5012116;28;20212;-74
2021/12/27 00:16:22;;;;;;;27.90;11.70;;;0.90;99.90;;;;;;5029931;28;20166;-74
2021/12/27 00:18:48;;;;;;;19.60;10.25;;;0.90;99.90;;;;;;5012049;28;20166;-74
2021/12/27 00:21:14;;;;;;;19.80;9.48;;;0.90;99.90;;;;;;5029875;28;20701;-74
2021/12/27 00:23:40;;;;;;;21.98;10.80;;;0.90;99.90;;;;;;5012070;28;20166;-73
2021/12/27 00:26:06;;;;;;;16.42;9.95;;;0.90;99.90;;;;;;5029908;28;20222;-74
2021/12/27 00:28:33;;;;;;;20.35;9.60;;;0.90;99.90;;;;;;5012081;28;20177;-73
2021/12/27 00:31:01;;;;;;;18.05;9.85;;;0.90;99.90;;;;;;5029638;28;20200;-73
2021/12/27 00:33:27;;;;;;;20.35;9.50;;;0.90;99.90;;;;;;5029750;28;20161;-73
2021/12/27 00:35:53;;;;;;;20.45;9.98;;;0.90;99.90;;;;;;5029665;28;20186;-74
2021/12/27 00:38:18;;;;;;;19.77;9.95;;;0.80;99.90;;;;;;5029607;28;20218;-73
2021/12/27 00:40:44;;;;;;;23.90;10.25;;;0.90;99.90;;;;;;5029530;28;20162;-73
2021/12/27 00:43:10;;;;;;;19.00;8.60;;;0.90;99.90;;;;;;5029506;28;20163;-73
2021/12/27 00:45:36;;;;;;;14.57;8.60;;;0.80;99.90;;;;;;5029519;28;20619;-74
2021/12/27 00:48:03;;;;;;;16.08;8.18;;;0.80;99.90;;;;;;5029504;28;20164;-73
2021/12/27 00:50:30;;;;;;;18.08;7.63;;;0.70;99.90;;;;;;5029411;28;20167;-73
2021/12/27 00:52:55;;;;;;;15.98;7.40;;;0.80;99.90;;;;;;5029389;28;20227;-73
2021/12/27 00:55:22;;;;;;;19.35;7.40;;;0.80;99.90;;;;;;5029252;28;20210;-73
2021/12/27 00:57:49;;;;;;;14.82;8.48;;;0.80;99.90;;;;;;5029365;28;20237;-73
2021/12/27 01:00:17;;;;;;;12.40;6.50;;;0.80;99.90;;;;;;5029036;28;20221;-73
2021/12/27 01:02:44;;;;;;;17.85;8.90;;;0.80;99.90;;;;;;5029159;28;20204;-73
2021/12/27 01:05:12;;;;;;;17.17;8.13;;;0.70;99.90;;;;;;5029335;28;20185;-73
2021/12/27 01:07:38;;;;;;;13.18;6.22;;;0.80;99.90;;;;;;5029144;28;20168;-73
2021/12/27 01:12:46;;;;;;;17.77;7.53;;;0.80;99.90;;;;;;5029096;28;20339;-73
2021/12/27 01:17:48;;;;;;;13.70;8.52;;;0.80;99.90;;;;;;5029157;28;20208;-73
2021/12/27 01:20:22;;;;;;;15.88;8.10;;;0.80;99.90;;;;;;5029037;28;20189;-75
2021/12/27 01:22:49;;;;;;;15.00;7.75;;;0.70;99.90;;;;;;5029041;28;20191;-74
2021/12/27 01:25:15;;;;;;;18.55;8.23;;;0.70;99.90;;;;;;5011326;28;20205;-74
2021/12/27 01:27:43;;;;;;;15.98;8.15;;;0.70;99.90;;;;;;5029062;28;20162;-75
2021/12/27 01:30:12;;;;;;;13.50;7.72;;;0.60;99.90;;;;;;5028968;28;20181;-74
2021/12/27 01:32:48;;;;;;;15.90;8.32;;;0.60;99.90;;;;;;5028988;28;20198;-75
2021/12/27 01:35:15;;;;;;;14.55;7.45;;;0.60;99.90;;;;;;5028971;28;20185;-75
2021/12/27 01:37:41;;;;;;;17.20;6.97;;;0.60;99.90;;;;;;5029057;28;20639;-75
2021/12/27 01:40:09;;;;;;;15.35;8.75;;;0.60;99.90;;;;;;5029037;28;20182;-75
2021/12/27 01:42:35;;;;;;;15.65;7.30;;;0.60;99.90;;;;;;5028965;28;20245;-73
2021/12/27 01:45:01;;;;;;;13.80;7.82;;;0.60;99.90;;;;;;5028954;28;20158;-76
2021/12/27 01:47:29;;;;;;;18.30;7.53;;;0.50;99.90;;;;;;5011062;28;20178;-75
2021/12/27 01:49:55;;;;;;;18.65;8.77;;;0.60;99.90;;;;;;5028919;28;20158;-75
2021/12/27 01:52:21;;;;;;;16.48;7.80;;;0.60;99.90;;;;;;5028700;28;20201;-75
2021/12/27 01:54:50;;;;;;;18.02;7.47;;;0.50;99.90;;;;;;5028740;28;20209;-75
2021/12/27 01:57:16;;;;;;;17.42;7.75;;;0.50;99.90;;;;;;5028862;28;20246;-75
2021/12/27 01:59:42;;;;;;;13.90;7.25;;;0.40;99.90;;;;;;5021295;28;20316;-75
2021/12/27 02:02:08;;;;;;;16.02;7.80;;;0.40;99.90;;;;;;5048438;28;20196;-73
2021/12/27 02:04:33;;;;;;;17.98;8.07;;;0.40;99.90;;;;;;5047173;28;20192;-73
2021/12/27 02:06:59;;;;;;;16.58;7.20;;;0.40;99.90;;;;;;5048586;28;20192;-74
2021/12/27 02:09:36;;;;;;;14.27;7.20;;;0.40;99.90;;;;;;5055506;28;20169;-74
2021/12/27 02:12:02;;;;;;;15.73;7.22;;;0.40;99.90;;;;;;5068333;28;20742;-75
2021/12/27 02:14:28;;;;;;;11.40;7.35;;;0.50;99.90;;;;;;5049088;28;20300;-75
2021/12/27 02:16:54;;;;;;;20.02;9.60;;;0.60;99.90;;;;;;5048461;28;20157;-72
2021/12/27 02:19:20;;;;;;;15.82;7.15;;;0.50;99.90;;;;;;5043727;28;20226;-75
2021/12/27 02:21:46;;;;;;;16.25;8.18;;;0.50;99.90;;;;;;5027263;28;20217;-75
2021/12/27 02:24:12;;;;;;;17.50;8.35;;;0.50;99.90;;;;;;5032005;28;20170;-75
2021/12/27 02:26:40;;;;;;;14.75;7.95;;;0.50;99.90;;;;;;5032113;28;20163;-74
2021/12/27 02:29:09;;;;;;;15.85;8.05;;;0.40;99.90;;;;;;5030809;28;20174;-74
2021/12/27 02:31:39;;;;;;;17.05;8.15;;;0.40;99.90;;;;;;5031945;28;20193;-74
2021/12/27 02:34:07;;;;;;;14.65;6.97;;;0.40;99.90;;;;;;5031842;28;20197;-74
2021/12/27 02:36:33;;;;;;;15.30;8.88;;;0.40;99.90;;;;;;5031849;28;20155;-74
2021/12/27 02:38:59;;;;;;;16.50;6.97;;;0.50;99.90;;;;;;5031819;28;20158;-74
2021/12/27 02:41:25;;;;;;;19.15;8.30;;;0.50;99.90;;;;;;5030416;28;20193;-74
2021/12/27 02:43:51;;;;;;;16.67;7.40;;;0.40;99.90;;;;;;5031780;28;20158;-74
2021/12/27 02:46:17;;;;;;;17.73;8.38;;;0.40;99.90;;;;;;5031754;28;20162;-74
2021/12/27 02:48:47;;;;;;;14.27;7.57;;;0.40;99.90;;;;;;5031758;28;20163;-74
2021/12/27 02:51:14;;;;;;;16.52;7.90;;;0.40;99.90;;;;;;5031622;28;20188;-74
2021/12/27 02:53:40;;;;;;;17.17;8.93;;;0.40;99.90;;;;;;5031601;28;20154;-74
2021/12/27 02:56:06;;;;;;;18.92;8.02;;;0.40;99.90;;;;;;5031514;28;20166;-74
2021/12/27 02:58:34;;;;;;;19.23;8.88;;;0.40;99.90;;;;;;5031540;28;20238;-74
2021/12/27 03:01:07;;;;;;;16.90;7.95;;;0.40;99.90;;;;;;5013949;28;20277;-74
2021/12/27 03:03:34;;;;;;;17.60;8.40;;;0.40;99.90;;;;;;5011795;28;20210;-75
2021/12/27 03:06:00;;;;;;;12.60;7.97;;;0.40;99.90;;;;;;5011707;28;20158;-75
2021/12/27 03:08:26;;;;;;;26.98;9.50;;;0.40;99.90;;;;;;4994096;28;20214;-75
2021/12/27 03:10:55;;;;;;;24.25;10.27;;;0.40;99.90;;;;;;5029847;28;20210;-74
2021/12/27 03:13:35;;;;;;;15.73;8.25;;;0.40;99.90;;;;;;5031164;28;20215;-74
2021/12/27 03:16:05;;;;;;;19.38;9.07;;;0.40;99.90;;;;;;5031071;28;20194;-74
2021/12/27 03:18:36;;;;;;;18.40;9.48;;;0.40;99.90;;;;;;5031251;28;20166;-75
2021/12/27 03:21:03;;;;;;;18.05;9.32;;;0.40;99.90;;;;;;5030864;28;20198;-74
2021/12/27 03:23:29;;;;;;;22.08;9.77;;;0.50;99.90;;;;;;5031179;28;20210;-74
2021/12/27 03:25:55;;;;;;;27.55;10.93;;;0.40;99.90;;;;;;5031031;28;20166;-74
2021/12/27 03:28:22;;;;;;;25.27;9.45;;;0.40;99.90;;;;;;5013199;28;20196;-74
2021/12/27 03:30:49;;;;;;;21.13;9.65;;;0.40;99.90;;;;;;5030807;28;20202;-75
2021/12/27 03:33:16;;;;;;;24.83;9.93;;;0.40;99.90;;;;;;5012713;28;20173;-75
2021/12/27 03:35:51;;;;;;;18.75;8.57;;;0.50;99.90;;;;;;5012988;28;20206;-75
2021/12/27 03:38:18;;;;;;;17.33;8.45;;;0.60;99.90;;;;;;5013009;28;20162;-75
2021/12/27 03:40:45;;;;;;;22.42;9.52;;;0.60;99.90;;;;;;5012890;28;20217;-74
2021/12/27 03:43:12;;;;;;;16.98;10.52;;;0.50;99.90;;;;;;5030602;28;20159;-74
2021/12/27 03:45:40;;;;;;;19.63;8.57;;;0.50;99.90;;;;;;5030346;28;20173;-74
2021/12/27 03:48:09;;;;;;;14.82;7.22;;;0.50;99.90;;;;;;5012823;28;20253;-74
2021/12/27 03:50:36;;;;;;;14.07;7.82;;;0.50;99.90;;;;;;5030401;28;20194;-75
2021/12/27 03:53:03;;;;;;;13.77;7.78;;;0.60;99.90;;;;;;5030375;28;20165;-75
2021/12/27 03:55:29;;;;;;;15.13;8.00;;;0.50;99.90;;;;;;5030016;28;20276;-75
2021/12/27 03:58:06;;;;;;;17.63;8.18;;;0.40;99.90;;;;;;5012798;28;20610;-75
2021/12/27 04:00:46;;;;;;;16.58;7.47;;;0.40;99.90;;;;;;5030046;28;20245;-75
2021/12/27 04:03:12;;;;;;;18.50;7.60;;;0.50;99.90;;;;;;5030343;28;20158;-75
2021/12/27 04:05:38;;;;;;;14.27;7.72;;;0.50;99.90;;;;;;5030175;28;20172;-74
2021/12/27 04:08:09;;;;;;;16.48;7.10;;;0.50;99.90;;;;;;5030199;28;20166;-74
2021/12/27 04:10:37;;;;;;;14.50;7.55;;;0.50;99.90;;;;;;5012254;28;20273;-74
2021/12/27 04:13:04;;;;;;;18.45;6.40;;;0.50;99.90;;;;;;5029916;28;20229;-74
2021/12/27 04:15:30;;;;;;;17.65;8.88;;;0.50;99.90;;;;;;5029971;28;20258;-75
2021/12/27 04:17:56;;;;;;;17.60;8.40;;;0.50;99.90;;;;;;5030024;28;20301;-74
2021/12/27 04:20:22;;;;;;;21.45;9.70;;;0.50;99.90;;;;;;5029685;28;20166;-74
2021/12/27 04:22:49;;;;;;;18.38;7.80;;;0.50;99.90;;;;;;5029999;28;20615;-74
2021/12/27 04:25:17;;;;;;;16.98;8.30;;;0.50;99.90;;;;;;5029832;28;20673;-75
2021/12/27 04:27:43;;;;;;;15.20;7.43;;;0.50;99.90;;;;;;5029764;28;20162;-74
2021/12/27 04:30:10;;;;;;;19.42;8.52;;;0.60;99.90;;;;;;5029800;28;20193;-75
2021/12/27 04:32:35;;;;;;;27.13;9.05;;;0.60;99.90;;;;;;5029666;28;20200;-75
2021/12/27 04:35:02;;;;;;;16.75;8.25;;;0.60;99.90;;;;;;5011778;28;20197;-75
2021/12/27 04:37:29;;;;;;;19.95;9.20;;;0.60;99.90;;;;;;5029584;28;20182;-75
2021/12/27 04:39:57;;;;;;;17.60;8.85;;;0.60;99.90;;;;;;5029596;28;20163;-75
2021/12/27 04:42:24;;;;;;;24.20;9.38;;;0.50;99.90;;;;;;5029442;28;20182;-75
2021/12/27 04:44:50;;;;;;;16.65;8.18;;;0.50;99.90;;;;;;5011070;28;20178;-74
2021/12/27 04:47:16;;;;;;;20.08;8.32;;;0.60;99.90;;;;;;5029274;28;20296;-74
2021/12/27 04:49:46;;;;;;;24.00;9.18;;;0.60;99.90;;;;;;5029299;28;20173;-74
2021/12/27 04:52:12;;;;;;;21.33;8.80;;;0.70;99.90;;;;;;5029377;28;20253;-74
2021/12/27 04:54:39;;;;;;;18.85;9.02;;;0.60;99.90;;;;;;5029428;28;20181;-74
2021/12/27 04:57:05;;;;;;;21.65;10.07;;;0.70;99.90;;;;;;5029272;28;20164;-74
2021/12/27 04:59:31;;;;;;;21.13;9.20;;;0.60;99.90;;;;;;5029126;28;20221;-74
2021/12/27 05:01:57;;;;;;;21.27;8.93;;;0.70;99.90;;;;;;5029084;28;20193;-75
2021/12/27 05:04:23;;;;;;;21.42;9.48;;;0.60;99.90;;;;;;5029246;28;20161;-74
2021/12/27 05:06:49;;;;;;;25.63;10.63;;;0.60;99.90;;;;;;5029231;28;20166;-74
2021/12/27 05:09:15;;;;;;;25.48;10.75;;;0.60;99.90;;;;;;5029176;28;20219;-74
2021/12/27 05:11:41;;;;;;;25.45;10.60;;;0.50;99.90;;;;;;5029106;28;20189;-74
2021/12/27 05:14:07;;;;;;;26.92;10.27;;;0.50;99.90;;;;;;5028847;28;20202;-74
2021/12/27 05:16:33;;;;;;;34.33;10.50;;;0.60;99.90;;;;;;5029164;28;20164;-75
2021/12/27 05:18:59;;;;;;;23.77;9.32;;;0.50;99.90;;;;;;5029000;28;20218;-74
2021/12/27 05:21:25;;;;;;;22.00;10.25;;;0.50;99.90;;;;;;5028844;28;20250;-75
2021/12/27 05:23:52;;;;;;;20.90;8.73;;;0.50;99.90;;;;;;5011416;28;20184;-75
2021/12/27 05:26:19;;;;;;;21.05;8.80;;;0.60;99.90;;;;;;5029052;28;20193;-75
2021/12/27 05:28:45;;;;;;;16.98;8.77;;;0.50;99.90;;;;;;5029021;28;20185;-75
2021/12/27 05:31:11;;;;;;;21.75;9.60;;;0.50;99.90;;;;;;5011187;28;20198;-74
2021/12/27 05:33:37;;;;;;;19.05;8.15;;;0.50;99.90;;;;;;5029085;28;20162;-74
2021/12/27 05:36:04;;;;;;;19.00;8.85;;;0.50;99.90;;;;;;5028739;28;20209;-74
2021/12/27 05:38:30;;;;;;;16.98;8.48;;;0.50;99.90;;;;;;5028987;28;20158;-75
2021/12/27 05:40:56;;;;;;;28.52;9.20;;;0.60;99.90;;;;;;5028804;28;20213;-74
2021/12/27 05:43:23;;;;;;;23.13;8.30;;;0.60;99.90;;;;;;5028886;28;20159;-75
2021/12/27 05:45:50;;;;;;;26.52;8.95;;;0.60;99.90;;;;;;5028855;28;20162;-75
2021/12/27 05:48:16;;;;;;;18.55;8.95;;;0.60;99.90;;;;;;5028814;28;20173;-74
2021/12/27 05:50:43;;;;;;;23.15;8.93;;;0.60;99.90;;;;;;5028839;28;20205;-75
2021/12/27 05:53:10;;;;;;;22.27;9.80;;;0.60;99.90;;;;;;5011118;28;20174;-75
2021/12/27 05:55:36;;;;;;;17.58;8.27;;;0.60;99.90;;;;;;5028655;28;20197;-75
2021/12/27 05:58:04;;;;;;;18.38;7.63;;;0.50;99.90;;;;;;5032206;28;20627;-75
2021/12/27 06:00:30;;;;;;;27.05;9.77;;;0.50;99.90;;;;;;5037649;28;20221;-75
2021/12/27 06:02:57;;;;;;;23.00;9.10;;;0.60;99.90;;;;;;5051087;28;20196;-76
2021/12/27 06:05:24;;;;;;;23.98;9.52;;;0.60;99.90;;;;;;5052223;28;20165;-73
2021/12/27 06:07:51;;;;;;;21.90;9.20;;;0.60;99.90;;;;;;5050602;28;20197;-73
2021/12/27 06:10:17;;;;;;;28.35;9.80;;;0.60;99.90;;;;;;5050542;28;20169;-75
2021/12/27 06:12:44;;;;;;;29.58;9.52;;;0.60;99.90;;;;;;5052198;28;20177;-75
2021/12/27 06:15:12;;;;;;;21.58;9.27;;;0.60;99.90;;;;;;5051919;28;20192;-74
2021/12/27 06:17:39;;;;;;;19.38;9.48;;;0.60;99.90;;;;;;5050693;28;20169;-73
2021/12/27 06:20:09;;;;;;;21.17;7.40;;;0.60;99.90;;;;;;5051958;28;20565;-75
2021/12/27 06:22:36;;;;;;;23.95;10.23;;;0.60;99.90;;;;;;5051858;28;20196;-73
2021/12/27 06:25:03;;;;;;;23.65;9.35;;;0.60;99.90;;;;;;5050571;28;20245;-73
2021/12/27 06:27:31;;;;;;;25.85;10.43;;;0.60;99.90;;;;;;5051942;28;20158;-73
2021/12/27 06:29:59;;;;;;;27.67;10.48;;;0.60;99.90;;;;;;5051782;28;20248;-75
2021/12/27 06:32:25;;;;;;;27.63;9.45;;;0.50;99.90;;;;;;5050187;28;20205;-75
2021/12/27 06:34:50;;;;;;;31.90;9.15;;;0.60;99.90;;;;;;5051549;28;20190;-75
2021/12/27 06:37:16;;;;;;;28.63;10.88;;;0.50;99.90;;;;;;5051679;28;20216;-75
2021/12/27 06:39:42;;;;;;;23.55;10.18;;;0.60;99.90;;;;;;5051637;28;20610;-75
2021/12/27 06:42:08;;;;;;;39.53;12.25;;;0.60;99.90;;;;;;5051517;28;20197;-74
2021/12/27 06:44:35;;;;;;;32.53;11.82;;;0.60;99.90;;;;;;5051441;28;20168;-73
2021/12/27 06:47:02;;;;;;;25.23;11.68;;;0.60;99.90;;;;;;5051428;28;20185;-73
2021/12/27 06:49:31;;;;;;;29.55;11.20;;;0.60;99.90;;;;;;5051536;28;20161;-74
2021/12/27 06:51:58;;;;;;;27.63;10.90;;;0.70;99.90;;;;;;5051266;28;20692;-73
2021/12/27 06:54:24;;;;;;;25.75;10.82;;;0.70;99.90;;;;;;5051101;28;20190;-74
2021/12/27 06:56:50;;;;;;;28.55;9.63;;;0.70;99.90;;;;;;5049984;28;20169;-74
2021/12/27 06:59:16;;;;;;;23.42;9.05;;;0.70;99.90;;;;;;5046673;28;20752;-74
2021/12/27 07:01:42;;;;;;;29.02;9.27;;;0.70;99.90;;;;;;5031135;28;20229;-74
2021/12/27 07:04:08;;;;;;;22.88;9.27;;;0.70;99.90;;;;;;5031097;28;20169;-74
2021/12/27 07:06:34;;;;;;;29.52;9.60;;;0.70;99.90;;;;;;5031351;28;20619;-74
2021/12/27 07:08:59;;;;;;;24.60;9.93;;;0.70;99.90;;;;;;5030251;28;20170;-74
2021/12/27 07:11:25;;;;;;;28.02;9.98;;;0.70;99.90;;;;;;5031038;28;20213;-74
2021/12/27 07:13:51;;;;;;;32.03;9.52;;;0.70;99.90;;;;;;5013024;28;20181;-73
2021/12/27 07:16:17;;;;;;;25.10;9.20;;;0.70;99.90;;;;;;5013404;28;20172;-74
2021/12/27 07:18:43;;;;;;;25.50;10.45;;;0.70;99.90;;;;;;5013234;28;20225;-74
2021/12/27 07:21:09;;;;;;;29.45;10.23;;;0.80;99.90;;;;;;5013063;28;20198;-73
2021/12/27 07:23:35;;;;;;;26.20;8.95;;;0.70;99.90;;;;;;5030882;28;20170;-73
2021/12/27 07:26:01;;;;;;;19.23;9.25;;;0.70;99.90;;;;;;5030808;28;20169;-74
2021/12/27 07:28:27;;;;;;;23.20;8.48;;;0.60;99.90;;;;;;5030792;28;20194;-73
2021/12/27 07:30:54;;;;;;;23.00;9.88;;;0.60;99.90;;;;;;5030667;28;20186;-73
2021/12/27 07:33:19;;;;;;;18.20;9.27;;;0.70;99.90;;;;;;5030683;28;20166;-74
2021/12/27 07:35:47;;;;;;;25.20;8.30;;;0.70;99.90;;;;;;5012945;28;20201;-74
2021/12/27 07:38:13;;;;;;;21.55;8.38;;;0.70;99.90;;;;;;5030605;28;20151;-73
2021/12/27 07:40:39;;;;;;;22.27;9.50;;;0.60;99.90;;;;;;5030600;28;20185;-74
2021/12/27 07:43:05;;;;;;;22.52;7.68;;;0.70;99.90;;;;;;5012882;28;20162;-73
2021/12/27 07:45:31;;;;;;;20.98;9.48;;;0.70;99.90;;;;;;5030471;28;20173;-73
2021/12/27 07:47:57;;;;;;;21.58;8.63;;;0.70;99.90;;;;;;5030639;28;20158;-74
2021/12/27 07:50:24;;;;;;;35.13;13.23;;;0.60;99.90;;;;;;5030415;28;20154;-73
2021/12/27 07:52:50;;;;;;;21.02;8.45;;;0.70;99.90;;;;;;5012729;28;20208;-73
2021/12/27 07:55:17;;;;;;;23.75;7.80;;;0.60;99.90;;;;;;5030213;28;20302;-73
2021/12/27 07:57:43;;;;;;;21.23;7.47;;;0.70;99.90;;;;;;5030395;28;20154;-74
2021/12/27 08:00:10;;;;;;;24.33;7.90;;;0.60;99.90;;;;;;5030015;28;20296;-73
2021/12/27 08:02:37;;;;;;;12.80;7.38;;;0.60;99.90;;;;;;5029796;28;20189;-73
2021/12/27 08:05:04;;;;;;;21.13;9.10;;;0.70;99.90;;;;;;5030046;28;20239;-74
2021/12/27 08:07:30;;;;;;;26.27;9.25;;;0.70;99.90;;;;;;5030161;28;20570;-73
2021/12/27 08:09:56;;;;;;;19.73;9.02;;;0.80;99.90;;;;;;5012183;28;20177;-74
2021/12/27 08:12:22;;;;;;;23.33;8.18;;;0.80;99.90;;;;;;5029826;28;20201;-74
2021/12/27 08:14:48;;;;;;;26.52;8.70;;;0.90;99.90;;;;;;5029597;28;20210;-74
2021/12/27 08:17:14;;;;;;;19.65;7.43;;;1.00;99.90;;;;;;4994517;28;20263;-74
2021/12/27 08:19:40;;;;;;;23.45;7.88;;;1.10;99.90;;;;;;5022809;28;20212;-73
2021/12/27 08:22:06;;;;;;;18.73;8.48;;;1.20;99.90;;;;;;5029871;28;20193;-74
2021/12/27 08:24:31;;;;;;;22.52;8.18;;;1.20;99.90;;;;;;5029764;28;20166;-74
2021/12/27 08:27:02;;;;;;;21.38;7.82;;;1.20;99.90;;;;;;5012238;28;20170;-74
2021/12/27 08:29:29;;;;;;;28.33;7.85;;;1.20;99.90;;;;;;5029717;28;20218;-74
2021/12/27 08:31:55;;;;;;;17.42;7.47;;;1.30;99.90;;;;;;5029610;28;20201;-74
2021/12/27 08:34:21;;;;;;;24.40;9.98;;;1.30;99.90;;;;;;5029749;28;20190;-74
2021/12/27 08:36:47;;;;;;;21.65;9.07;;;1.30;99.90;;;;;;5011921;28;20166;-74
2021/12/27 08:39:14;;;;;;;19.38;8.43;;;1.30;99.90;;;;;;5011785;28;20230;-74
2021/12/27 08:41:39;;;;;;;21.27;7.75;;;1.30;99.90;;;;;;5029565;28;20185;-74
2021/12/27 08:44:05;;;;;;;21.52;8.80;;;1.40;99.90;;;;;;5029269;28;20166;-74
2021/12/27 08:46:32;;;;;;;23.85;8.50;;;1.50;99.90;;;;;;5011716;28;20162;-74
2021/12/27 08:48:59;;;;;;;25.48;9.70;;;1.30;99.90;;;;;;5029475;28;20182;-74
2021/12/27 08:51:25;;;;;;;29.58;9.98;;;1.20;99.90;;;;;;5029119;28;20228;-75
2021/12/27 08:53:52;;;;;;;24.17;9.48;;;1.20;99.90;;;;;;5028772;28;20181;-74
2021/12/27 08:56:18;;;;;;;20.80;8.27;;;1.30;99.90;;;;;;5029381;28;20655;-74
2021/12/27 08:58:45;;;;;;;26.40;9.10;;;1.30;99.90;;;;;;5029153;28;20159;-74
2021/12/27 09:01:11;;;;;;;18.23;8.95;;;1.50;99.90;;;;;;5028958;28;20276;-74
2021/12/27 09:03:37;;;;;;;30.77;10.82;;;1.50;99.90;;;;;;5029319;28;20162;-74
2021/12/27 09:06:04;;;;;;;31.40;10.55;;;1.60;99.90;;;;;;5029084;28;20182;-74
2021/12/27 09:08:30;;;;;;;26.65;10.05;;;1.70;99.90;;;;;;5029342;28;20217;-74
2021/12/27 09:10:58;;;;;;;24.92;9.93;;;1.70;99.90;;;;;;5029039;28;20226;-74
2021/12/27 09:13:28;;;;;;;28.45;10.32;;;1.60;99.90;;;;;;5029006;28;20165;-74
2021/12/27 09:15:56;;;;;;;23.80;9.65;;;1.60;99.90;;;;;;5028889;28;20635;-75
2021/12/27 09:18:22;;;;;;;26.33;8.90;;;1.60;99.90;;;;;;5029100;28;20222;-74
2021/12/27 09:20:48;;;;;;;23.48;9.80;;;1.70;99.90;;;;;;5028710;28;20221;-74
2021/12/27 09:23:14;;;;;;;25.10;9.57;;;1.60;99.90;;;;;;5029024;28;20158;-74
2021/12/27 09:25:42;;;;;;;30.05;10.82;;;1.50;99.90;;;;;;5011318;28;20170;-74
2021/12/27 09:28:08;;;;;;;27.73;9.93;;;1.60;99.90;;;;;;5028984;28;20170;-74
2021/12/27 09:30:34;;;;;;;28.35;10.27;;;1.80;99.90;;;;;;5028837;28;20204;-75
2021/12/27 09:33:00;;;;;;;24.50;9.68;;;1.80;99.90;;;;;;5032520;28;20158;-74
2021/12/27 09:35:25;;;;;;;20.55;9.68;;;1.60;99.90;;;;;;5032823;28;20186;-75
2021/12/27 09:37:51;;;;;;;18.73;7.80;;;1.60;99.90;;;;;;5032743;28;20177;-75
2021/12/27 09:40:18;;;;;;;20.30;9.93;;;1.60;99.90;;;;;;5015134;28;20166;-74
2021/12/27 09:42:44;;;;;;;17.58;7.95;;;1.60;99.90;;;;;;5032750;28;20154;-75
2021/12/27 09:45:10;;;;;;;22.88;9.35;;;1.60;99.90;;;;;;5032576;28;20169;-75
2021/12/27 09:47:37;;;;;;;19.88;8.15;;;1.70;99.90;;;;;;5032723;28;20531;-75
2021/12/27 09:50:08;;;;;;;20.73;8.15;;;1.70;99.90;;;;;;5032684;28;20169;-74
2021/12/27 09:52:34;;;;;;;13.65;7.40;;;1.90;99.90;;;;;;5014975;28;20198;-73
2021/12/27 09:55:03;;;;;;;14.25;7.32;;;1.90;99.90;;;;;;5032626;28;20190;-74
2021/12/27 09:57:33;;;;;;;20.52;8.05;;;2.00;99.90;;;;;;5032697;28;20238;-75
2021/12/27 09:59:59;;;;;;;20.50;8.25;;;1.90;99.90;;;;;;5032362;28;20217;-74
2021/12/27 10:02:25;;;;;;;16.38;7.60;;;1.90;99.90;;;;;;5032276;28;20186;-74
2021/12/27 10:04:53;;;;;;;16.30;6.95;;;1.90;99.90;;;;;;5032434;28;20184;-74
2021/12/27 10:07:23;;;;;;;18.73;8.10;;;1.90;99.90;;;;;;5032256;28;20158;-74
2021/12/27 10:09:59;;;;;;;15.48;6.80;;;1.90;99.90;;;;;;5032018;28;20177;-75
2021/12/27 10:12:27;;;;;;;17.67;7.32;;;1.90;99.90;;;;;;5032235;28;20249;-75
2021/12/27 10:15:01;;;;;;;13.85;7.40;;;1.90;99.90;;;;;;5032025;28;20189;-75
2021/12/27 10:17:30;;;;;;;18.25;7.38;;;1.90;99.90;;;;;;5032325;28;20178;-76
2021/12/27 10:20:13;;;;;;;19.08;7.60;;;1.90;99.90;;;;;;5031954;28;20170;-75
2021/12/27 10:22:49;;;;;;;21.50;7.85;;;1.80;99.90;;;;;;5032206;28;20186;-75
2021/12/27 10:25:17;;;;;;;21.38;8.48;;;1.80;99.90;;;;;;5014159;28;20224;-76
2021/12/27 10:27:44;;;;;;;21.95;8.18;;;1.70;99.90;;;;;;5032064;28;20158;-75
2021/12/27 10:30:16;;;;;;;24.95;8.50;;;1.80;99.90;;;;;;5031830;28;20173;-75
2021/12/27 10:32:44;;;;;;;16.23;7.53;;;2.00;99.90;;;;;;5031704;28;20213;-75
2021/12/27 10:35:11;;;;;;;22.05;7.22;;;2.20;99.90;;;;;;5031886;28;20204;-75
2021/12/27 10:37:38;;;;;;;20.05;8.60;;;2.40;99.90;;;;;;5031912;28;20151;-75
2021/12/27 10:40:12;;;;;;;14.40;7.53;;;2.20;99.90;;;;;;5031752;28;20155;-75
2021/12/27 10:42:45;;;;;;;19.50;8.40;;;2.10;99.90;;;;;;5030928;28;20186;-75
2021/12/27 10:45:20;;;;;;;27.15;10.25;;;2.10;99.90;;;;;;5031679;28;20162;-75
2021/12/27 10:47:49;;;;;;;24.90;9.63;;;2.00;99.90;;;;;;5031553;28;20162;-75
2021/12/27 10:50:25;;;;;;;22.80;9.88;;;2.00;99.90;;;;;;5031458;28;20604;-75
2021/12/27 10:53:02;;;;;;;25.48;9.40;;;1.90;99.90;;;;;;5031631;28;20154;-75
2021/12/27 10:55:34;;;;;;;17.08;7.88;;;1.90;99.90;;;;;;5031236;28;20677;-76
2021/12/27 10:58:18;;;;;;;26.25;9.90;;;2.00;99.90;;;;;;5031414;28;20205;-75
2021/12/27 11:00:47;;;;;;;21.73;9.85;;;1.90;99.90;;;;;;5031108;28;20214;-75
2021/12/27 11:03:24;;;;;;;22.42;9.80;;;1.80;99.90;;;;;;5013622;28;20619;-75
2021/12/27 11:05:50;;;;;;;22.20;10.98;;;1.80;99.90;;;;;;5031423;28;20162;-75
2021/12/27 11:08:16;;;;;;;22.38;9.50;;;1.80;99.90;;;;;;5031254;28;20159;-75
2021/12/27 11:10:42;;;;;;;21.85;9.18;;;1.80;99.90;;;;;;5031105;28;20237;-75
2021/12/27 11:13:09;;;;;;;22.20;8.82;;;1.90;99.90;;;;;;5031062;28;20185;-75
2021/12/27 11:15:36;;;;;;;20.10;10.88;;;1.90;99.90;;;;;;5013140;28;20221;-75
2021/12/27 11:18:04;;;;;;;19.15;10.27;;;2.00;99.90;;;;;;5031119;28;20596;-75
2021/12/27 11:20:31;;;;;;;20.33;10.48;;;2.10;99.90;;;;;;5030575;28;20241;-74
2021/12/27 11:22:59;;;;;;;20.80;9.68;;;1.90;99.90;;;;;;5013219;28;20170;-74
2021/12/27 11:25:32;;;;;;;25.20;8.98;;;1.90;99.90;;;;;;5030906;28;20536;-74
2021/12/27 11:28:00;;;;;;;13.70;7.07;;;2.10;99.90;;;;;;5030827;28;20166;-75
2021/12/27 11:30:33;;;;;;;16.35;8.75;;;2.00;99.90;;;;;;5030719;28;20165;-74
2021/12/27 11:33:00;;;;;;;19.35;8.23;;;2.00;99.90;;;;;;5030734;28;20188;-74
2021/12/27 11:35:37;;;;;;;17.45;6.82;;;2.00;99.90;;;;;;5012860;28;20217;-74
2021/12/27 11:38:04;;;;;;;14.02;7.75;;;2.10;99.90;;;;;;5030672;28;20185;-74
2021/12/27 11:40:42;;;;;;;18.27;8.13;;;2.00;99.90;;;;;;5030611;28;20519;-74
2021/12/27 11:43:09;;;;;;;16.63;7.88;;;2.10;99.90;;;;;;5030316;28;20233;-75
2021/12/27 11:45:41;;;;;;;15.80;7.28;;;2.20;99.90;;;;;;5029120;28;20245;-74
2021/12/27 11:48:16;;;;;;;15.07;7.45;;;2.30;99.90;;;;;;5030430;28;20170;-74
2021/12/27 11:50:57;;;;;;;11.93;6.85;;;2.30;99.90;;;;;;5030340;28;20203;-74
2021/12/27 11:53:31;;;;;;;16.33;7.43;;;2.50;99.90;;;;;;5030304;28;20173;-74
2021/12/27 11:55:58;;;;;;;18.02;7.38;;;2.50;99.90;;;;;;5029885;28;20232;-74
2021/12/27 11:58:32;;;;;;;18.60;7.50;;;2.60;99.90;;;;;;5030270;28;20158;-74
2021/12/27 12:00:59;;;;;;;13.63;6.82;;;2.60;99.90;;;;;;5042833;28;20228;-74
2021/12/27 12:03:44;;;;;;;15.25;7.25;;;2.50;99.90;;;;;;5049941;28;20153;-74
2021/12/27 12:06:49;;;;;;;14.13;6.80;;;2.50;99.90;;;;;;5050028;28;20220;-74
2021/12/27 12:09:17;;;;;;;16.02;7.45;;;2.40;99.90;;;;;;5027712;28;20185;-75
2021/12/27 12:11:46;;;;;;;13.70;6.85;;;2.20;99.90;;;;;;5027927;28;20209;-74
2021/12/27 12:14:25;;;;;;;14.30;7.00;;;2.30;99.90;;;;;;5011178;28;20186;-74
2021/12/27 12:16:51;;;;;;;14.18;6.40;;;2.30;99.90;;;;;;5027936;28;20157;-76
2021/12/27 12:19:17;;;;;;;13.65;6.93;;;2.40;99.90;;;;;;5027827;28;20190;-75
2021/12/27 12:21:47;;;;;;;14.10;7.57;;;2.40;99.90;;;;;;5027494;28;20198;-75
2021/12/27 12:24:21;;;;;;;13.45;6.90;;;2.20;99.90;;;;;;5027705;28;20154;-75
2021/12/27 12:26:52;;;;;;;15.50;6.82;;;2.20;99.90;;;;;;5027635;28;20213;-75
2021/12/27 12:29:19;;;;;;;15.05;7.22;;;2.30;99.90;;;;;;5027793;28;20170;-75
2021/12/27 12:31:45;;;;;;;13.43;6.63;;;2.40;99.90;;;;;;5010889;28;20198;-75
2021/12/27 12:34:19;;;;;;;11.52;6.30;;;2.40;99.90;;;;;;5027324;28;20246;-75
2021/12/27 12:36:45;;;;;;;12.70;6.45;;;2.40;99.90;;;;;;5027520;28;20162;-75
2021/12/27 12:39:11;;;;;;;14.98;7.47;;;2.40;99.90;;;;;;5027786;28;20192;-75
2021/12/27 12:41:37;;;;;;;15.05;7.70;;;2.30;99.90;;;;;;5029427;28;20192;-75
2021/12/27 12:44:03;;;;;;;15.32;7.57;;;2.20;99.90;;;;;;5029538;28;20185;-74
2021/12/27 12:46:40;;;;;;;12.65;7.05;;;2.20;99.90;;;;;;5029569;28;20209;-75
2021/12/27 12:49:22;;;;;;;10.85;6.53;;;2.20;99.90;;;;;;5029464;28;20162;-74
2021/12/27 12:51:50;;;;;;;10.57;6.50;;;2.20;99.90;;;;;;5029249;28;20189;-74
2021/12/27 12:54:19;;;;;;;12.40;6.90;;;2.10;99.90;;;;;;5027973;28;20229;-75